createdAt,value
2023-08-25T00:01:39.293Z,7.63
2023-08-25T00:04:07.572Z,4.57
2023-08-25T00:06:35.809Z,5.03
2023-08-25T00:09:05.803Z,6.03
2023-08-25T00:11:34.044Z,3.43
2023-08-25T00:14:02.233Z,3.10
2023-08-25T00:16:30.450Z,5.00
2023-08-25T00:18:59.053Z,5.27
2023-08-25T00:21:27.232Z,2.80
2023-08-25T00:23:55.426Z,4.70
2023-08-25T00:26:25.053Z,5.30
2023-08-25T00:28:53.293Z,9.20
2023-08-25T00:31:21.523Z,5.57
2023-08-25T00:33:51.129Z,3.93
2023-08-25T00:36:19.627Z,5.03
2023-08-25T00:38:47.952Z,3.57
2023-08-25T00:41:16.214Z,6.40
2023-08-25T00:43:45.811Z,4.93
2023-08-25T00:46:14.886Z,5.13
2023-08-25T00:48:43.479Z,5.33
2023-08-25T00:51:11.875Z,5.37
2023-08-25T00:53:40.648Z,6.50
2023-08-25T00:56:09.928Z,7.03
2023-08-25T00:58:38.393Z,4.17
2023-08-25T01:01:08.163Z,3.73
2023-08-25T01:03:39.266Z,3.27
2023-08-25T01:06:09.865Z,3.90
2023-08-25T01:08:38.640Z,5.13
2023-08-25T01:11:12.339Z,4.53
2023-08-25T01:13:45.941Z,5.47
2023-08-25T01:16:18.490Z,4.37
2023-08-25T01:18:47.110Z,3.83
2023-08-25T01:21:15.543Z,4.23
2023-08-25T01:23:49.092Z,2.47
2023-08-25T01:26:18.894Z,3.07
2023-08-25T01:28:51.834Z,4.47
2023-08-25T01:31:20.720Z,5.83
2023-08-25T01:33:49.314Z,3.93
2023-08-25T01:36:21.731Z,4.53
2023-08-25T01:38:52.118Z,2.43
2023-08-25T01:41:25.177Z,3.83
2023-08-25T01:43:54.869Z,4.13
2023-08-25T01:46:24.866Z,2.90
2023-08-25T01:48:55.671Z,4.90
2023-08-25T01:51:24.114Z,3.70
2023-08-25T01:53:54.500Z,4.30
2023-08-25T01:56:24.459Z,2.47
2023-08-25T01:58:53.045Z,5.53
2023-08-25T02:01:21.364Z,3.83
2023-08-25T02:03:49.628Z,5.10
2023-08-25T02:06:17.883Z,2.33
2023-08-25T02:08:46.163Z,4.23
2023-08-25T02:11:14.357Z,4.53
2023-08-25T02:13:43.922Z,2.67
2023-08-25T02:16:12.273Z,3.53
2023-08-25T02:18:40.615Z,2.97
2023-08-25T02:21:08.918Z,4.90
2023-08-25T02:23:37.169Z,5.60
2023-08-25T02:26:05.443Z,8.30
2023-08-25T02:28:33.698Z,3.50
2023-08-25T02:31:03.456Z,2.83
2023-08-25T02:33:31.729Z,4.70
2023-08-25T02:35:59.999Z,2.93
2023-08-25T02:38:28.249Z,5.17
2023-08-25T02:40:56.504Z,4.40
2023-08-25T02:43:24.785Z,5.13
2023-08-25T02:45:53.085Z,5.03
2023-08-25T02:48:22.715Z,3.40
2023-08-25T02:50:50.949Z,5.13
2023-08-25T02:53:19.185Z,5.67
2023-08-25T02:55:48.724Z,4.50
2023-08-25T02:58:16.967Z,3.83
2023-08-25T03:00:45.291Z,4.57
2023-08-25T03:03:13.702Z,3.73
2023-08-25T03:05:43.390Z,3.20
2023-08-25T03:08:14.255Z,7.23
2023-08-25T03:10:45.035Z,4.77
2023-08-25T03:13:13.312Z,3.67
2023-08-25T03:15:41.923Z,6.40
2023-08-25T03:18:10.185Z,6.27
2023-08-25T03:20:38.440Z,3.47
2023-08-25T03:23:08.086Z,4.03
2023-08-25T03:25:39.616Z,5.37
2023-08-25T03:28:08.023Z,6.03
2023-08-25T03:30:36.333Z,4.70
2023-08-25T03:33:04.706Z,7.17
2023-08-25T03:35:35.207Z,6.60
2023-08-25T03:38:03.515Z,7.83
2023-08-25T03:40:33.609Z,4.50
2023-08-25T03:43:01.894Z,4.60
2023-08-25T03:45:30.117Z,4.37
2023-08-25T03:47:58.427Z,5.73
2023-08-25T03:50:26.710Z,5.87
2023-08-25T03:52:54.922Z,4.67
2023-08-25T03:55:24.647Z,6.23
2023-08-25T03:57:54.797Z,5.00
2023-08-25T04:00:23.340Z,4.07
2023-08-25T04:02:52.239Z,8.10
2023-08-25T04:05:20.469Z,6.53
2023-08-25T04:07:50.082Z,5.00
2023-08-25T04:10:18.326Z,6.30
2023-08-25T04:12:46.575Z,4.50
2023-08-25T04:15:16.226Z,6.30
2023-08-25T04:17:44.521Z,7.37
2023-08-25T04:20:15.292Z,4.97
2023-08-25T04:22:43.551Z,5.07
2023-08-25T04:25:11.793Z,7.97
2023-08-25T04:27:40.065Z,6.37
2023-08-25T04:30:09.043Z,5.17
2023-08-25T04:32:38.760Z,5.13
2023-08-25T04:35:09.069Z,5.23
2023-08-25T04:37:37.313Z,6.90
2023-08-25T04:40:06.104Z,5.73
2023-08-25T04:42:35.409Z,4.97
2023-08-25T04:45:05.529Z,7.43
2023-08-25T04:47:33.756Z,4.73
2023-08-25T04:50:03.857Z,7.53
2023-08-25T04:52:32.104Z,9.50
2023-08-25T04:55:00.361Z,8.90
2023-08-25T04:57:28.582Z,3.97
2023-08-25T04:59:56.836Z,5.40
2023-08-25T05:02:25.110Z,4.87
2023-08-25T05:04:53.436Z,7.00
2023-08-25T05:07:23.046Z,7.20
2023-08-25T05:09:52.079Z,4.57
2023-08-25T05:12:20.349Z,5.70
2023-08-25T05:14:48.611Z,5.40
2023-08-25T05:17:16.859Z,6.60
2023-08-25T05:19:45.087Z,4.20
2023-08-25T05:22:13.323Z,7.73
2023-08-25T05:24:43.171Z,6.50
2023-08-25T05:27:11.537Z,5.40
2023-08-25T05:29:39.804Z,4.83
2023-08-25T05:32:08.160Z,5.60
2023-08-25T05:34:36.509Z,6.53
2023-08-25T05:37:05.108Z,4.57
2023-08-25T05:39:33.356Z,4.47
2023-08-25T05:42:02.994Z,4.60
2023-08-25T05:44:31.234Z,3.90
2023-08-25T05:47:01.139Z,5.07
2023-08-25T05:49:29.386Z,3.83
2023-08-25T05:51:57.648Z,3.43
2023-08-25T05:54:25.892Z,3.77
2023-08-25T05:56:55.626Z,7.43
2023-08-25T05:59:25.420Z,5.87
2023-08-25T06:01:53.778Z,7.30
2023-08-25T06:04:22.027Z,5.23
2023-08-25T06:06:50.363Z,7.77
2023-08-25T06:09:18.845Z,7.20
2023-08-25T06:11:47.167Z,3.37
2023-08-25T06:14:15.388Z,4.60
2023-08-25T06:16:44.935Z,2.50
2023-08-25T06:19:13.186Z,5.33
2023-08-25T06:21:41.457Z,5.03
2023-08-25T06:24:11.414Z,5.60
2023-08-25T06:26:40.705Z,3.40
2023-08-25T06:29:08.899Z,7.53
2023-08-25T06:31:37.148Z,2.93
2023-08-25T06:34:06.713Z,3.33
2023-08-25T06:36:35.064Z,3.93
2023-08-25T06:39:04.897Z,4.57
2023-08-25T06:41:33.123Z,4.33
2023-08-25T06:44:01.365Z,5.77
2023-08-25T06:46:29.902Z,4.33
2023-08-25T06:48:58.127Z,4.27
2023-08-25T06:51:27.731Z,5.00
2023-08-25T06:53:57.576Z,4.00
2023-08-25T06:56:25.841Z,4.53
2023-08-25T06:58:54.124Z,4.77
2023-08-25T07:01:22.361Z,6.47
2023-08-25T07:03:50.675Z,4.97
2023-08-25T07:06:18.974Z,3.97
2023-08-25T07:08:48.823Z,5.80
2023-08-25T07:11:17.062Z,4.30
2023-08-25T07:13:45.254Z,5.13
2023-08-25T07:16:13.535Z,4.93
2023-08-25T07:18:41.896Z,5.13
2023-08-25T07:21:11.097Z,4.90
2023-08-25T07:23:39.829Z,3.83
2023-08-25T07:26:10.036Z,4.93
2023-08-25T07:28:38.266Z,4.10
2023-08-25T07:31:06.532Z,4.90
2023-08-25T07:33:34.774Z,5.50
2023-08-25T07:36:05.089Z,6.03
2023-08-25T07:38:33.445Z,6.10
2023-08-25T07:41:02.078Z,5.37
2023-08-25T07:43:31.713Z,6.20
2023-08-25T07:46:00.015Z,7.07
2023-08-25T07:48:28.329Z,7.70
2023-08-25T07:50:56.595Z,3.30
2023-08-25T07:53:24.821Z,3.90
2023-08-25T07:55:53.065Z,3.73
2023-08-25T07:58:22.297Z,2.50
2023-08-25T08:00:52.021Z,2.10
2023-08-25T08:03:20.396Z,3.53
2023-08-25T08:05:48.878Z,3.90
2023-08-25T08:08:17.151Z,3.83
2023-08-25T08:10:45.360Z,2.93
2023-08-25T08:13:13.646Z,2.50
2023-08-25T08:15:42.031Z,2.67
2023-08-25T08:18:11.784Z,3.93
2023-08-25T08:20:40.112Z,3.40
2023-08-25T08:23:10.745Z,3.87
2023-08-25T08:25:39.395Z,2.37
2023-08-25T08:28:09.580Z,4.10
2023-08-25T08:30:38.288Z,3.83
2023-08-25T08:33:09.003Z,2.80
2023-08-25T08:35:39.130Z,2.87
2023-08-25T08:38:07.512Z,4.27
2023-08-25T08:40:36.131Z,2.50
2023-08-25T08:43:04.722Z,2.30
2023-08-25T10:56:40.422Z,5.97
2023-08-25T10:59:10.408Z,1.67
2023-08-25T11:01:59.131Z,4.30
2023-08-25T11:04:28.852Z,2.60
2023-08-25T11:06:57.972Z,2.73
2023-08-25T11:09:33.610Z,2.70
2023-08-25T11:12:04.699Z,3.40
2023-08-25T11:14:33.877Z,4.23
2023-08-25T11:17:03.800Z,2.17
2023-08-25T11:19:33.622Z,2.07
2023-08-25T11:22:02.434Z,2.13
2023-08-25T11:24:33.096Z,3.57
2023-08-25T11:27:10.398Z,3.23
2023-08-25T11:29:40.871Z,2.13
2023-08-25T11:32:12.538Z,1.90
2023-08-25T11:34:40.927Z,4.37
2023-08-25T11:37:09.377Z,1.50
2023-08-25T11:39:43.619Z,2.13
2023-08-25T11:42:13.791Z,5.73
2023-08-25T11:44:42.779Z,2.23
2023-08-25T11:47:11.286Z,2.20
2023-08-25T11:49:39.657Z,3.67
2023-08-25T11:52:08.516Z,5.30
2023-08-25T11:54:46.003Z,3.80
2023-08-25T11:57:16.142Z,2.47
2023-08-25T11:59:44.579Z,2.63
2023-08-25T12:02:17.039Z,4.23
2023-08-25T12:04:59.232Z,2.93
2023-08-25T12:07:29.304Z,3.90
2023-08-25T12:09:58.196Z,2.00
2023-08-25T12:12:27.917Z,3.53
2023-08-25T12:14:56.556Z,2.43
2023-08-25T12:17:26.374Z,4.30
2023-08-25T12:19:55.064Z,1.70
2023-08-25T12:22:23.329Z,3.00
2023-08-25T12:24:51.931Z,2.10
2023-08-25T12:27:21.163Z,3.57
2023-08-25T12:29:50.730Z,2.70
2023-08-25T12:32:19.313Z,2.20
2023-08-25T12:34:47.514Z,6.13
2023-08-25T12:37:15.917Z,7.93
2023-08-25T12:39:44.262Z,3.10
2023-08-25T12:42:12.488Z,3.93
2023-08-25T12:44:40.702Z,2.07
2023-08-25T12:47:10.377Z,2.90
2023-08-25T12:49:38.671Z,4.03
2023-08-25T12:52:07.280Z,4.33
2023-08-25T12:54:35.526Z,4.83
2023-08-25T12:57:04.277Z,3.63
2023-08-25T12:59:32.831Z,3.37
2023-08-25T13:02:01.063Z,4.40
2023-08-25T13:04:30.627Z,4.17
2023-08-25T13:06:59.092Z,2.53
2023-08-25T13:09:27.435Z,3.73
2023-08-25T13:11:55.686Z,2.80
2023-08-25T13:14:24.382Z,4.83
2023-08-25T13:16:52.669Z,2.30
2023-08-25T13:19:21.012Z,2.80
2023-08-25T13:21:50.917Z,5.23
2023-08-25T13:24:19.158Z,3.60
2023-08-25T13:26:47.466Z,5.10
2023-08-25T13:29:15.754Z,2.63
2023-08-25T13:31:44.044Z,3.03
2023-08-25T13:34:12.353Z,2.37
2023-08-25T13:36:40.665Z,3.07
2023-08-25T13:39:10.572Z,3.03
2023-08-25T13:41:38.843Z,4.00
2023-08-25T13:44:08.002Z,3.60
2023-08-25T13:46:36.259Z,3.10
2023-08-25T13:49:05.453Z,4.90
2023-08-25T13:51:33.926Z,7.93
2023-08-25T13:54:03.393Z,4.03
2023-08-25T13:56:33.535Z,5.03
2023-08-25T13:59:02.355Z,5.53
2023-08-25T14:01:30.593Z,4.93
2023-08-25T14:03:58.959Z,5.80
2023-08-25T14:06:27.245Z,8.93
2023-08-25T14:08:55.574Z,7.77
2023-08-25T14:11:24.042Z,10.30
2023-08-25T14:13:53.657Z,9.50
2023-08-25T14:16:21.896Z,6.53
2023-08-25T14:18:50.194Z,8.63
2023-08-25T14:21:18.414Z,10.70
2023-08-25T14:23:46.750Z,9.40
2023-08-25T14:26:15.046Z,11.67
2023-08-25T14:28:43.343Z,9.77
2023-08-25T14:31:13.140Z,7.73
2023-08-25T14:33:41.412Z,12.73
2023-08-25T14:36:09.747Z,7.00
2023-08-25T14:38:38.416Z,7.57
2023-08-25T14:41:20.147Z,7.23
2023-08-25T14:43:48.386Z,6.07
2023-08-25T14:46:18.054Z,7.17
2023-08-25T14:48:47.707Z,9.30
2023-08-25T14:51:16.832Z,6.20
2023-08-25T14:53:45.089Z,7.57
2023-08-25T14:56:14.213Z,7.53
2023-08-25T14:58:42.506Z,7.70
2023-08-25T15:01:10.995Z,8.30
2023-08-25T15:03:40.659Z,7.50
2023-08-25T15:06:09.027Z,7.03
2023-08-25T15:08:37.242Z,6.57
2023-08-25T15:11:06.908Z,7.17
2023-08-25T15:13:35.278Z,7.60
2023-08-25T15:16:03.857Z,7.10
2023-08-25T15:18:35.473Z,7.03
2023-08-25T15:21:06.820Z,6.17
2023-08-25T15:23:35.103Z,5.87
2023-08-25T15:26:03.407Z,6.70
2023-08-25T15:28:31.997Z,5.73
2023-08-25T15:31:05.362Z,6.13
2023-08-25T15:33:33.904Z,6.37
2023-08-25T15:36:02.492Z,7.10
2023-08-25T15:38:32.106Z,8.27
2023-08-25T15:41:01.793Z,6.80
2023-08-25T15:43:30.038Z,7.10
2023-08-25T15:45:58.686Z,4.83
2023-08-25T15:48:28.032Z,5.00
2023-08-25T15:50:56.929Z,4.70
2023-08-25T15:53:25.702Z,5.13
2023-08-25T15:55:55.464Z,5.27
2023-08-25T15:58:23.748Z,4.07
2023-08-25T16:00:53.854Z,3.77
2023-08-25T16:03:22.505Z,5.27
2023-08-25T16:05:55.881Z,3.53
2023-08-25T16:08:25.200Z,6.47
2023-08-25T16:10:59.425Z,5.03
2023-08-25T16:13:27.688Z,4.37
2023-08-25T16:15:55.924Z,4.27
2023-08-25T16:18:24.251Z,4.63
2023-08-25T16:20:52.579Z,5.87
2023-08-25T16:23:21.441Z,6.80
2023-08-25T16:25:49.670Z,5.37
2023-08-25T16:28:19.270Z,3.93
2023-08-25T16:30:47.518Z,7.07
2023-08-25T16:33:15.835Z,5.03
2023-08-25T16:35:44.130Z,5.93
2023-08-25T16:38:12.398Z,4.80
2023-08-25T16:40:40.723Z,4.87
2023-08-25T16:43:09.465Z,4.63
2023-08-25T16:45:39.049Z,6.03
2023-08-25T16:48:08.522Z,7.97
2023-08-25T16:50:36.882Z,5.97
2023-08-25T16:53:08.773Z,6.70
2023-08-25T16:55:39.024Z,7.27
2023-08-25T16:58:07.477Z,9.40
2023-08-25T17:00:36.066Z,7.37
2023-08-25T17:03:05.940Z,8.43
2023-08-25T17:05:34.258Z,5.80
2023-08-25T17:08:05.406Z,8.83
2023-08-25T17:10:33.969Z,11.97
2023-08-25T17:13:02.306Z,8.00
2023-08-25T17:15:34.284Z,8.47
2023-08-25T17:18:02.890Z,9.17
2023-08-25T17:20:32.494Z,5.70
2023-08-25T17:23:00.856Z,8.40
2023-08-25T17:25:29.064Z,8.23
2023-08-25T17:27:57.836Z,10.83
2023-08-25T17:30:26.297Z,9.67
2023-08-25T17:32:54.873Z,9.60
2023-08-25T17:35:23.486Z,7.23
2023-08-25T17:37:53.077Z,11.13
2023-08-25T17:40:21.325Z,11.73
2023-08-25T17:42:49.534Z,12.37
2023-08-25T17:45:17.992Z,9.13
2023-08-25T17:47:46.346Z,13.97
2023-08-25T17:50:14.629Z,12.73
2023-08-25T17:52:42.914Z,10.47
2023-08-25T17:55:14.375Z,11.07
2023-08-25T17:57:44.942Z,11.73
2023-08-25T18:00:13.716Z,7.87
2023-08-25T18:02:42.070Z,8.67
2023-08-25T18:05:11.028Z,9.97
2023-08-25T18:07:39.334Z,8.97
2023-08-25T18:10:09.741Z,7.63
2023-08-25T18:12:39.338Z,11.23
2023-08-25T18:15:08.108Z,6.93
2023-08-25T18:17:36.704Z,11.20
2023-08-25T18:20:05.306Z,9.07
2023-08-25T18:22:33.580Z,7.60
2023-08-25T18:25:01.938Z,9.30
2023-08-25T18:27:30.299Z,7.97
2023-08-25T18:29:59.882Z,8.17
2023-08-25T18:32:28.209Z,8.03
2023-08-25T18:34:56.592Z,11.73
2023-08-25T18:37:24.810Z,9.27
2023-08-25T18:39:53.282Z,7.13
2023-08-25T18:42:21.547Z,8.93
2023-08-25T18:44:49.773Z,6.53
2023-08-25T18:47:19.394Z,11.17
2023-08-25T18:49:47.626Z,7.30
2023-08-25T18:52:15.901Z,8.33
2023-08-25T18:54:44.386Z,9.17
2023-08-25T18:57:12.635Z,9.60
2023-08-25T18:59:40.875Z,7.70
2023-08-25T19:02:09.138Z,7.43
2023-08-25T19:04:39.165Z,9.10
2023-08-25T19:07:07.545Z,8.93
2023-08-25T19:09:35.845Z,8.80
2023-08-25T19:12:04.118Z,10.67
2023-08-25T19:14:32.430Z,5.80
2023-08-25T19:17:00.902Z,7.13
2023-08-25T19:19:29.168Z,6.20
2023-08-25T19:21:58.787Z,8.97
2023-08-25T19:24:27.111Z,11.13
2023-08-25T19:26:56.435Z,6.93
2023-08-25T19:29:24.697Z,9.73
2023-08-25T19:31:52.968Z,8.17
2023-08-25T19:34:22.074Z,5.87
2023-08-25T19:36:50.312Z,8.50
2023-08-25T19:39:20.475Z,9.50
2023-08-25T19:41:48.969Z,5.67
2023-08-25T19:44:17.221Z,5.03
2023-08-25T19:46:45.506Z,9.30
2023-08-25T19:49:13.930Z,8.37
2023-08-25T19:51:43.392Z,9.40
2023-08-25T19:54:11.865Z,7.70
2023-08-25T19:56:42.470Z,7.90
2023-08-25T19:59:11.481Z,8.17
2023-08-25T20:01:39.799Z,6.83
2023-08-25T20:04:08.192Z,11.00
2023-08-25T20:06:36.476Z,6.40
2023-08-25T20:09:04.910Z,9.87
2023-08-25T20:11:34.577Z,6.70
2023-08-25T20:14:05.251Z,10.53
2023-08-25T20:16:33.555Z,12.93
2023-08-25T20:19:01.975Z,8.60
2023-08-25T20:21:30.237Z,8.53
2023-08-25T20:23:58.471Z,10.27
2023-08-25T20:26:26.740Z,9.27
2023-08-25T20:28:56.362Z,8.20
2023-08-25T20:31:26.120Z,7.93
2023-08-25T20:33:54.363Z,7.40
2023-08-25T20:36:22.671Z,10.63
2023-08-25T20:38:50.894Z,12.00
2023-08-25T20:41:19.156Z,6.43
2023-08-25T20:43:47.411Z,9.97
2023-08-25T20:46:16.459Z,7.20
2023-08-25T20:48:47.948Z,8.17
2023-08-25T20:51:16.908Z,9.93
2023-08-25T20:53:45.225Z,6.27
2023-08-25T20:56:13.467Z,6.87
2023-08-25T20:58:41.778Z,8.57
2023-08-25T21:01:10.843Z,11.37
2023-08-25T21:03:39.375Z,7.80
2023-08-25T21:06:09.561Z,6.97
2023-08-25T21:08:38.035Z,8.30
2023-08-25T21:11:06.349Z,11.90
2023-08-25T21:13:34.782Z,7.67
2023-08-25T21:16:03.186Z,11.10
2023-08-25T21:18:31.582Z,9.17
2023-08-25T21:21:01.436Z,10.40
2023-08-25T21:23:31.038Z,11.47
2023-08-25T21:26:00.796Z,15.77
2023-08-25T21:28:29.679Z,13.20
2023-08-25T21:30:58.427Z,12.20
2023-08-25T21:33:27.494Z,7.90
2023-08-25T21:35:55.748Z,14.13
2023-08-25T21:38:24.037Z,10.10
2023-08-25T21:40:53.868Z,8.37
2023-08-25T21:43:22.278Z,9.43
2023-08-25T21:45:50.571Z,9.40
2023-08-25T21:48:19.750Z,9.83
2023-08-25T21:50:48.995Z,13.53
2023-08-25T21:53:17.299Z,10.90
2023-08-25T21:55:45.756Z,11.53
2023-08-25T21:58:15.417Z,11.77
2023-08-25T22:00:45.379Z,10.83
2023-08-25T22:03:13.717Z,11.07
2023-08-25T22:05:41.999Z,10.20
2023-08-25T22:08:11.212Z,9.30
2023-08-25T22:10:40.464Z,9.83
2023-08-25T22:13:09.260Z,17.93
2023-08-25T22:15:38.963Z,14.07
2023-08-25T22:18:07.713Z,9.80
2023-08-25T22:20:36.070Z,12.53
2023-08-25T22:23:04.390Z,11.90
2023-08-25T22:25:32.955Z,9.07
2023-08-25T22:28:01.250Z,8.83
2023-08-25T22:30:30.221Z,10.23
2023-08-25T22:35:32.057Z,10.83
2023-08-25T22:38:00.265Z,11.37
2023-08-25T22:40:28.593Z,15.27
2023-08-25T22:42:56.819Z,9.30
2023-08-25T22:45:25.090Z,10.20
2023-08-25T22:47:53.534Z,11.37
2023-08-25T22:50:23.494Z,11.27
2023-08-25T22:52:51.703Z,9.20
2023-08-25T22:55:19.920Z,11.73
2023-08-25T22:57:48.126Z,8.73
2023-08-25T23:00:16.630Z,10.67
2023-08-25T23:02:45.766Z,12.97
2023-08-25T23:05:14.252Z,11.27
2023-08-25T23:07:43.821Z,9.80
2023-08-25T23:10:12.588Z,9.43
2023-08-25T23:12:40.996Z,11.33
2023-08-25T23:15:09.652Z,9.67
2023-08-25T23:17:37.930Z,8.23
2023-08-25T23:20:06.600Z,9.77
2023-08-25T23:22:34.849Z,10.13
2023-08-25T23:25:04.469Z,9.00
2023-08-25T23:27:32.702Z,7.83
2023-08-25T23:30:00.904Z,11.57
2023-08-25T23:32:29.237Z,12.73
2023-08-25T23:34:57.606Z,16.07
2023-08-25T23:37:25.925Z,7.50
2023-08-25T23:39:54.250Z,7.10
2023-08-25T23:42:24.094Z,8.00
2023-08-25T23:44:52.453Z,6.60
2023-08-25T23:47:20.739Z,6.47
2023-08-25T23:49:49.012Z,5.03
2023-08-25T23:52:17.272Z,6.00
2023-08-25T23:54:45.537Z,4.67
2023-08-25T23:57:13.798Z,7.10
2023-08-25T23:59:43.499Z,5.07
